Time;durP1;ratioP1;P1;durP2;ratioP2;P2;SDS_P1;SDS_P2;PMS_P1;PMS_P2;Temp;Humidity;BMP_temperature;BMP_pressure;BME280_temperature;BME280_humidity;BME280_pressure;Samples;Min_cycle;Max_cycle;Signal;HPM_P1;HPM_P2
2023/01/20 00:02:06;;;;;;;5.45;4.95;;;18.00;52.50;;;;;;5114417;28;20216;-60
2023/01/20 00:04:32;;;;;;;5.72;5.20;;;17.90;52.50;;;;;;5113718;28;20171;-59
2023/01/20 00:06:57;;;;;;;5.22;4.72;;;17.90;52.50;;;;;;5114484;28;20268;-59
2023/01/20 00:09:23;;;;;;;4.53;4.13;;;17.90;52.40;;;;;;5114271;28;20632;-59
2023/01/20 00:11:48;;;;;;;4.95;4.55;;;17.80;52.40;;;;;;5113186;28;20180;-60
2023/01/20 00:14:14;;;;;;;5.13;4.63;;;17.80;52.40;;;;;;5114020;28;20181;-60
2023/01/20 00:16:39;;;;;;;5.10;4.60;;;17.80;52.40;;;;;;5113856;28;20229;-60
2023/01/20 00:19:05;;;;;;;5.03;4.53;;;17.70;52.40;;;;;;5113658;28;20573;-60
2023/01/20 00:21:31;;;;;;;4.82;4.43;;;17.70;52.40;;;;;;5113908;28;20675;-60
2023/01/20 00:23:56;;;;;;;5.13;4.63;;;17.70;52.40;;;;;;5113731;28;20234;-60
2023/01/20 00:26:23;;;;;;;5.03;4.63;;;17.70;52.40;;;;;;5113316;28;20188;-59
2023/01/20 00:28:48;;;;;;;4.68;4.38;;;17.70;52.40;;;;;;5113804;28;20173;-59
2023/01/20 00:31:22;;;;;;;4.43;4.03;;;17.60;52.30;;;;;;5114073;28;20180;-60
2023/01/20 00:33:48;;;;;;;4.82;4.43;;;17.60;52.30;;;;;;5112261;28;20253;-60
2023/01/20 00:36:14;;;;;;;4.22;3.92;;;17.60;52.30;;;;;;5113912;28;20589;-60
2023/01/20 00:38:39;;;;;;;4.93;4.45;;;17.60;52.30;;;;;;5112934;28;20169;-60
2023/01/20 00:41:05;;;;;;;4.40;4.00;;;17.60;52.20;;;;;;5113688;28;20211;-60
2023/01/20 00:43:31;;;;;;;4.50;4.10;;;17.50;52.30;;;;;;5113394;28;20180;-60
2023/01/20 00:45:57;;;;;;;4.95;4.45;;;17.50;52.20;;;;;;5112845;28;20173;-60
2023/01/20 00:48:22;;;;;;;4.50;4.10;;;17.50;52.30;;;;;;5114016;28;20188;-60
2023/01/20 00:50:48;;;;;;;4.90;4.13;;;17.50;52.30;;;;;;5113655;28;20508;-60
2023/01/20 00:53:13;;;;;;;5.45;4.82;;;17.50;52.30;;;;;;5113159;28;20199;-60
2023/01/20 00:55:39;;;;;;;4.50;4.10;;;17.50;52.30;;;;;;5113391;28;20259;-60
2023/01/20 00:58:04;;;;;;;4.68;4.25;;;17.40;52.30;;;;;;5113502;28;20302;-60
2023/01/20 01:00:30;;;;;;;4.82;4.45;;;17.40;52.30;;;;;;5112728;28;20203;-60
2023/01/20 01:02:55;;;;;;;4.75;4.35;;;17.40;52.30;;;;;;5113348;28;20181;-60
2023/01/20 01:05:21;;;;;;;5.07;4.57;;;17.40;52.30;;;;;;5113341;28;20169;-59
2023/01/20 01:07:47;;;;;;;4.95;4.53;;;17.40;52.30;;;;;;5112383;28;20639;-59
2023/01/20 01:10:12;;;;;;;4.80;4.40;;;17.40;52.30;;;;;;5113368;28;20173;-59
2023/01/20 01:12:38;;;;;;;4.55;4.15;;;17.30;52.30;;;;;;5113128;28;20184;-60
2023/01/20 01:15:04;;;;;;;4.68;4.28;;;17.30;52.20;;;;;;5112633;28;20653;-60
2023/01/20 01:17:29;;;;;;;4.63;4.22;;;17.30;52.30;;;;;;5113231;28;20221;-60
2023/01/20 01:19:55;;;;;;;4.90;4.43;;;17.30;52.30;;;;;;5113531;28;20169;-60
2023/01/20 01:22:20;;;;;;;5.13;4.63;;;17.30;52.20;;;;;;5112624;28;20261;-60
2023/01/20 01:24:46;;;;;;;5.47;4.97;;;17.30;52.20;;;;;;5112983;28;20165;-59
2023/01/20 01:27:11;;;;;;;5.18;4.68;;;17.20;52.20;;;;;;5113110;28;20189;-59
2023/01/20 01:29:37;;;;;;;4.55;4.25;;;17.20;52.20;;;;;;5112385;28;20169;-60
2023/01/20 01:32:03;;;;;;;4.53;4.13;;;17.10;52.20;;;;;;5113236;28;20180;-59
2023/01/20 01:34:29;;;;;;;6.30;5.20;;;17.20;52.20;;;;;;5113251;28;20173;-60
2023/01/20 01:36:54;;;;;;;5.07;4.60;;;17.20;52.00;;;;;;5111795;28;20678;-60
2023/01/20 01:39:20;;;;;;;5.15;4.65;;;17.20;52.10;;;;;;5113156;28;20210;-60
2023/01/20 01:41:45;;;;;;;4.78;4.38;;;17.10;52.00;;;;;;5112716;28;20205;-60
2023/01/20 01:44:12;;;;;;;5.40;5.00;;;17.10;52.00;;;;;;5114889;28;20211;-60
2023/01/20 01:46:37;;;;;;;5.30;4.80;;;17.10;52.20;;;;;;5117181;28;20180;-60
2023/01/20 01:49:10;;;;;;;5.40;4.93;;;17.10;52.00;;;;;;5116585;28;20169;-59
2023/01/20 01:51:54;;;;;;;5.40;5.00;;;17.10;52.10;;;;;;5116858;28;20654;-59
2023/01/20 01:54:24;;;;;;;5.93;5.32;;;17.10;52.20;;;;;;5083627;28;20177;-60
2023/01/20 01:56:50;;;;;;;4.97;4.57;;;17.00;52.00;;;;;;5097633;28;20631;-59
2023/01/20 01:59:15;;;;;;;4.70;4.30;;;17.00;52.10;;;;;;5098956;28;20176;-60
2023/01/20 02:01:44;;;;;;;5.35;4.85;;;17.00;52.20;;;;;;5116418;28;20673;-60
2023/01/20 02:04:11;;;;;;;5.32;4.85;;;17.00;52.10;;;;;;5098001;28;20550;-60
2023/01/20 02:06:43;;;;;;;4.82;4.43;;;17.00;52.00;;;;;;5116688;28;20169;-59
2023/01/20 02:09:08;;;;;;;5.15;4.70;;;17.00;52.10;;;;;;5116977;28;20195;-59
2023/01/20 02:11:47;;;;;;;5.03;4.63;;;17.00;52.00;;;;;;5115877;28;20627;-59
2023/01/20 02:14:14;;;;;;;5.93;5.35;;;17.00;52.10;;;;;;5099180;28;20169;-60
2023/01/20 02:17:10;;;;;;;4.85;4.45;;;17.00;52.00;;;;;;5098196;28;20221;-60
2023/01/20 02:20:10;;;;;;;5.22;4.82;;;16.90;52.00;;;;;;5116508;28;20172;-60
2023/01/20 02:23:06;;;;;;;5.00;4.55;;;16.90;52.70;;;;;;5098101;28;20212;-60
2023/01/20 02:25:55;;;;;;;5.00;4.55;;;16.90;52.00;;;;;;5115552;28;20175;-59
2023/01/20 02:28:47;;;;;;;4.93;4.50;;;16.90;51.90;;;;;;5101160;28;20165;-59
2023/01/20 02:31:30;;;;;;;4.70;4.30;;;16.90;52.00;;;;;;5115696;28;20654;-60
2023/01/20 02:34:15;;;;;;;5.28;4.78;;;16.90;52.10;;;;;;5099820;28;20256;-60
2023/01/20 02:36:44;;;;;;;5.00;4.50;;;16.90;52.00;;;;;;5097860;28;20661;-60
2023/01/20 02:39:15;;;;;;;5.00;4.60;;;16.90;51.90;;;;;;5097459;28;20177;-60
2023/01/20 02:42:05;;;;;;;4.68;4.30;;;16.80;51.90;;;;;;5097399;28;20296;-60
2023/01/20 02:44:41;;;;;;;8.02;4.50;;;16.80;52.00;;;;;;5116148;28;20195;-60
2023/01/20 02:47:16;;;;;;;4.80;4.40;;;16.80;51.90;;;;;;5115459;28;20260;-60
2023/01/20 02:50:00;;;;;;;4.93;4.45;;;16.80;51.90;;;;;;5115894;28;20245;-59
2023/01/20 02:52:45;;;;;;;4.63;4.22;;;16.80;51.80;;;;;;5081879;28;20173;-59
2023/01/20 02:55:14;;;;;;;4.22;3.92;;;16.80;51.80;;;;;;5083150;28;20212;-59
2023/01/20 02:57:42;;;;;;;5.30;4.80;;;16.70;51.80;;;;;;5080588;28;20542;-60
2023/01/20 03:00:12;;;;;;;4.38;3.97;;;16.70;51.90;;;;;;5080444;28;20181;-60
2023/01/20 03:02:38;;;;;;;4.78;4.38;;;16.70;51.80;;;;;;5080871;28;20213;-59
2023/01/20 03:05:19;;;;;;;5.15;4.68;;;16.70;51.80;;;;;;5097607;28;20539;-58
2023/01/20 03:07:44;;;;;;;5.28;4.38;;;16.70;51.90;;;;;;5098270;28;20184;-59
2023/01/20 03:10:12;;;;;;;4.80;4.32;;;16.70;51.80;;;;;;5097643;28;20658;-58
2023/01/20 03:12:48;;;;;;;5.38;4.88;;;16.70;51.90;;;;;;5097304;28;20544;-59
2023/01/20 03:15:14;;;;;;;4.35;4.05;;;16.70;51.90;;;;;;5096685;28;20181;-60
2023/01/20 03:17:39;;;;;;;5.07;4.57;;;16.70;51.90;;;;;;5079903;28;20217;-60
2023/01/20 03:20:06;;;;;;;4.60;4.20;;;16.70;51.90;;;;;;5097469;28;20161;-60
2023/01/20 03:22:31;;;;;;;5.18;4.78;;;16.70;51.80;;;;;;5114434;28;20209;-60
2023/01/20 03:24:57;;;;;;;4.90;4.40;;;16.60;51.80;;;;;;5115365;28;20172;-60
2023/01/20 03:27:23;;;;;;;5.10;4.70;;;16.60;51.70;;;;;;5097169;28;20177;-59
2023/01/20 03:29:48;;;;;;;5.00;4.60;;;16.60;51.80;;;;;;5096174;28;20538;-59
2023/01/20 03:32:14;;;;;;;4.47;4.18;;;16.60;51.80;;;;;;5115038;28;20185;-60
2023/01/20 03:34:40;;;;;;;4.85;4.43;;;16.60;51.80;;;;;;5114377;28;20628;-60
2023/01/20 03:37:06;;;;;;;5.20;4.78;;;16.60;51.80;;;;;;5114993;28;20631;-60
2023/01/20 03:39:31;;;;;;;4.82;4.43;;;16.60;51.60;;;;;;5096632;28;20180;-60
2023/01/20 03:42:06;;;;;;;4.65;4.25;;;16.60;51.60;;;;;;5096114;28;20209;-60
2023/01/20 03:44:53;;;;;;;5.00;4.60;;;16.50;51.70;;;;;;5114694;28;20165;-60
2023/01/20 03:47:48;;;;;;;4.97;4.53;;;16.50;51.70;;;;;;5114824;28;20700;-60
2023/01/20 03:50:17;;;;;;;5.07;4.68;;;16.50;51.70;;;;;;5114287;28;20211;-60
2023/01/20 03:52:52;;;;;;;4.85;4.45;;;16.50;51.60;;;;;;5096229;28;20173;-59
2023/01/20 03:55:33;;;;;;;5.07;4.60;;;16.50;51.70;;;;;;5096718;28;20172;-60
2023/01/20 03:58:13;;;;;;;4.40;4.10;;;16.50;51.70;;;;;;5096117;28;20569;-60
2023/01/20 04:00:41;;;;;;;4.78;4.38;;;16.50;51.80;;;;;;5097363;28;20249;-60
2023/01/20 04:03:08;;;;;;;4.63;4.22;;;16.50;51.70;;;;;;5096003;28;20264;-59
2023/01/20 04:05:34;;;;;;;5.10;4.70;;;16.50;51.70;;;;;;5114141;28;20180;-59
2023/01/20 04:08:01;;;;;;;5.57;5.07;;;16.50;51.70;;;;;;5095478;28;20169;-58
2023/01/20 04:10:26;;;;;;;4.88;4.47;;;16.40;51.60;;;;;;5078841;28;20518;-59
2023/01/20 04:12:52;;;;;;;4.85;4.45;;;16.50;51.70;;;;;;5079156;28;20187;-59
2023/01/20 04:15:18;;;;;;;5.25;4.75;;;16.40;51.60;;;;;;5096290;28;20627;-60
2023/01/20 04:17:43;;;;;;;5.30;4.80;;;16.40;51.60;;;;;;5095104;28;20229;-60
2023/01/20 04:20:09;;;;;;;5.68;5.25;;;16.40;51.60;;;;;;5096100;28;20169;-60
2023/01/20 04:22:42;;;;;;;5.20;4.65;;;16.40;51.60;;;;;;5095648;28;20228;-60
2023/01/20 04:25:27;;;;;;;5.63;5.13;;;16.40;51.60;;;;;;5095452;28;20205;-59
2023/01/20 04:27:53;;;;;;;5.40;5.00;;;16.40;51.60;;;;;;5113875;28;20290;-59
2023/01/20 04:30:18;;;;;;;5.63;5.13;;;16.40;51.50;;;;;;5114064;28;20169;-59
2023/01/20 04:32:44;;;;;;;5.28;4.78;;;16.30;51.50;;;;;;5112962;28;20506;-60
2023/01/20 04:35:11;;;;;;;5.70;5.10;;;16.40;51.60;;;;;;5114182;28;20173;-60
2023/01/20 04:37:37;;;;;;;6.15;5.45;;;16.40;51.40;;;;;;5095740;28;20181;-60
2023/01/20 04:40:03;;;;;;;5.72;5.25;;;16.40;51.50;;;;;;5113392;28;20184;-60
2023/01/20 04:42:28;;;;;;;5.40;4.95;;;16.30;51.50;;;;;;5113799;28;20209;-62
2023/01/20 04:44:54;;;;;;;6.10;5.60;;;16.30;51.50;;;;;;5112757;28;20188;-60
2023/01/20 04:47:19;;;;;;;5.78;5.28;;;16.30;51.50;;;;;;5113828;28;20629;-60
2023/01/20 04:49:45;;;;;;;6.28;5.68;;;16.30;51.50;;;;;;5113631;28;20624;-59
2023/01/20 04:52:10;;;;;;;5.93;5.38;;;16.30;51.50;;;;;;5112996;28;20547;-60
2023/01/20 04:54:36;;;;;;;5.18;4.78;;;16.30;51.50;;;;;;5113439;28;20176;-60
2023/01/20 04:57:01;;;;;;;6.13;5.63;;;16.30;51.50;;;;;;5113678;28;20169;-60
2023/01/20 04:59:27;;;;;;;6.15;5.55;;;16.30;51.50;;;;;;5112795;28;20200;-60
2023/01/20 05:01:52;;;;;;;5.90;5.30;;;16.30;51.50;;;;;;5113096;28;20713;-60
2023/01/20 05:04:18;;;;;;;6.38;5.80;;;16.20;51.50;;;;;;5113664;28;20165;-60
2023/01/20 05:06:43;;;;;;;6.43;5.70;;;16.20;52.00;;;;;;5112520;28;20600;-59
2023/01/20 05:09:12;;;;;;;5.80;5.30;;;16.20;51.50;;;;;;5113499;28;20603;-59
2023/01/20 05:11:38;;;;;;;6.53;5.93;;;16.20;51.50;;;;;;5113275;28;20173;-59
2023/01/20 05:14:04;;;;;;;6.53;5.97;;;16.20;51.50;;;;;;5112722;28;20176;-59
2023/01/20 05:16:30;;;;;;;6.78;5.95;;;16.20;51.40;;;;;;5113220;28;20221;-60
2023/01/20 05:18:56;;;;;;;6.63;6.03;;;16.20;51.50;;;;;;5113195;28;20178;-60
2023/01/20 05:21:22;;;;;;;7.30;6.43;;;16.20;51.50;;;;;;5112563;28;20621;-60
2023/01/20 05:23:47;;;;;;;6.28;5.53;;;16.20;51.40;;;;;;5112962;28;20177;-59
2023/01/20 05:26:13;;;;;;;6.47;5.88;;;16.10;51.30;;;;;;5113373;28;20169;-59
2023/01/20 05:28:38;;;;;;;7.00;6.35;;;16.10;51.40;;;;;;5112273;28;20225;-59
2023/01/20 05:31:04;;;;;;;6.53;5.93;;;16.10;51.50;;;;;;5113393;28;20237;-59
2023/01/20 05:33:29;;;;;;;6.65;6.05;;;16.10;51.40;;;;;;5113258;28;20501;-60
2023/01/20 05:35:55;;;;;;;7.15;6.13;;;16.10;51.40;;;;;;5112102;28;20642;-61
2023/01/20 05:38:20;;;;;;;6.72;6.03;;;16.10;51.40;;;;;;5113419;28;20179;-61
2023/01/20 05:40:46;;;;;;;6.80;6.13;;;16.10;51.50;;;;;;5112805;28;20207;-61
2023/01/20 05:43:11;;;;;;;6.20;5.60;;;16.10;51.40;;;;;;5112510;28;20654;-61
2023/01/20 05:45:37;;;;;;;6.60;6.07;;;16.10;51.50;;;;;;5112730;28;20264;-61
2023/01/20 05:48:03;;;;;;;7.07;6.35;;;16.10;51.50;;;;;;5113246;28;20220;-61
2023/01/20 05:50:28;;;;;;;6.25;5.65;;;16.10;51.50;;;;;;5112628;28;20265;-61
2023/01/20 05:52:54;;;;;;;6.50;5.90;;;16.10;51.50;;;;;;5112633;28;20199;-60
2023/01/20 05:55:20;;;;;;;6.43;5.82;;;16.00;51.30;;;;;;5112452;28;20223;-61
2023/01/20 05:57:45;;;;;;;6.28;5.68;;;16.10;51.40;;;;;;5112746;28;20607;-61
2023/01/20 06:00:12;;;;;;;6.63;6.03;;;16.00;51.40;;;;;;5112830;28;20169;-61
2023/01/20 06:02:38;;;;;;;6.40;5.80;;;16.00;51.40;;;;;;5112055;28;20213;-61
2023/01/20 06:05:04;;;;;;;7.15;5.90;;;16.00;51.40;;;;;;5112889;28;20642;-60
2023/01/20 06:07:30;;;;;;;6.72;5.88;;;16.00;51.40;;;;;;5112974;28;20537;-60
2023/01/20 06:09:56;;;;;;;6.88;6.18;;;16.00;51.40;;;;;;5112078;28;20172;-60
2023/01/20 06:12:22;;;;;;;7.65;6.43;;;16.00;51.40;;;;;;5112784;28;20624;-60
2023/01/20 06:14:47;;;;;;;7.00;6.40;;;16.00;51.30;;;;;;5112536;28;20177;-61
2023/01/20 06:17:13;;;;;;;6.30;5.70;;;16.00;51.40;;;;;;5112190;28;20216;-61
2023/01/20 06:19:38;;;;;;;7.65;6.85;;;16.00;51.40;;;;;;5112653;28;20298;-61
2023/01/20 06:22:06;;;;;;;6.63;6.03;;;16.00;51.30;;;;;;5112784;28;20334;-61
2023/01/20 06:24:31;;;;;;;6.90;6.22;;;15.90;51.30;;;;;;5093872;28;20172;-60
2023/01/20 06:26:57;;;;;;;6.53;5.93;;;15.90;51.40;;;;;;5112707;28;20177;-60
2023/01/20 06:29:22;;;;;;;6.85;6.25;;;15.90;51.30;;;;;;5112692;28;20173;-60
2023/01/20 06:31:48;;;;;;;7.18;6.40;;;15.90;51.30;;;;;;5114724;28;20184;-59
2023/01/20 06:34:13;;;;;;;6.82;6.22;;;15.90;51.30;;;;;;5116280;28;20192;-62
2023/01/20 06:36:39;;;;;;;7.22;6.53;;;15.90;51.30;;;;;;5115977;28;20542;-61
2023/01/20 06:39:05;;;;;;;6.55;5.90;;;15.90;51.30;;;;;;5115505;28;20615;-60
2023/01/20 06:41:30;;;;;;;6.70;6.10;;;15.90;51.40;;;;;;5116138;28;20667;-61
2023/01/20 06:43:56;;;;;;;7.20;6.55;;;15.90;52.00;;;;;;5116046;28;20570;-61
2023/01/20 06:46:22;;;;;;;6.03;5.53;;;15.90;51.40;;;;;;5115533;28;20177;-60
2023/01/20 06:48:47;;;;;;;6.32;5.72;;;15.90;51.40;;;;;;5115962;28;20260;-60
2023/01/20 06:51:15;;;;;;;6.40;5.80;;;15.90;51.40;;;;;;5116007;28;20169;-60
2023/01/20 06:53:40;;;;;;;6.82;6.22;;;15.80;51.40;;;;;;5115057;28;20209;-60
2023/01/20 06:56:06;;;;;;;6.88;6.28;;;15.80;51.30;;;;;;5115612;28;20650;-59
2023/01/20 06:58:32;;;;;;;6.72;6.03;;;15.80;51.30;;;;;;5114880;28;20179;-60
2023/01/20 07:01:02;;;;;;;7.15;6.45;;;15.90;51.50;;;;;;5115659;28;20266;-60
2023/01/20 07:03:28;;;;;;;6.30;5.70;;;15.90;51.40;;;;;;5098461;28;20177;-60
2023/01/20 07:05:58;;;;;;;6.18;5.57;;;15.90;51.40;;;;;;5114885;28;20270;-60
2023/01/20 07:08:24;;;;;;;5.78;5.30;;;16.00;51.40;;;;;;5097438;28;20226;-59
2023/01/20 07:10:49;;;;;;;6.00;5.50;;;16.00;51.70;;;;;;5115284;28;20169;-59
2023/01/20 07:13:15;;;;;;;5.40;4.90;;;16.10;51.70;;;;;;5114903;28;20256;-60
2023/01/20 07:15:40;;;;;;;5.22;4.72;;;16.30;51.60;;;;;;5115217;28;20260;-60
2023/01/20 07:18:06;;;;;;;5.70;5.20;;;16.40;51.20;;;;;;5115648;28;20244;-61
2023/01/20 07:20:31;;;;;;;6.43;5.47;;;16.60;51.10;;;;;;5114657;28;20248;-60
2023/01/20 07:23:00;;;;;;;5.47;4.97;;;16.70;50.90;;;;;;5115357;28;20181;-60
2023/01/20 07:25:26;;;;;;;5.35;4.85;;;16.90;50.80;;;;;;5115303;28;20169;-59
2023/01/20 07:27:52;;;;;;;4.70;4.30;;;16.90;50.70;;;;;;5114517;28;20177;-59
2023/01/20 07:30:17;;;;;;;5.07;4.65;;;17.00;50.50;;;;;;5115393;28;20176;-60
2023/01/20 07:32:43;;;;;;;5.03;4.53;;;17.10;50.40;;;;;;5115109;28;20165;-60
2023/01/20 07:35:08;;;;;;;4.57;4.18;;;17.20;50.40;;;;;;5114488;28;20686;-60
2023/01/20 07:37:34;;;;;;;5.10;4.60;;;17.20;50.30;;;;;;5114693;28;20173;-60
2023/01/20 07:40:00;;;;;;;5.63;5.13;;;17.30;50.20;;;;;;5115159;28;20185;-60
2023/01/20 07:42:25;;;;;;;5.28;4.80;;;17.30;50.00;;;;;;5113817;28;20702;-60
2023/01/20 07:44:51;;;;;;;4.22;3.83;;;17.40;50.00;;;;;;5114861;28;20654;-60
2023/01/20 07:47:16;;;;;;;5.00;4.50;;;17.40;49.90;;;;;;5114994;28;20588;-60
2023/01/20 07:49:42;;;;;;;4.50;4.10;;;17.50;49.90;;;;;;5113795;28;20639;-60
2023/01/20 07:52:07;;;;;;;4.57;4.18;;;17.40;49.90;;;;;;5114741;28;20173;-60
2023/01/20 07:54:33;;;;;;;4.43;4.03;;;17.50;49.90;;;;;;5114510;28;20172;-60
2023/01/20 07:56:58;;;;;;;4.60;4.20;;;17.40;49.90;;;;;;5114304;28;20180;-60
2023/01/20 07:59:25;;;;;;;5.20;4.70;;;17.40;49.90;;;;;;5114772;28;20197;-60
2023/01/20 08:01:50;;;;;;;4.60;4.20;;;17.40;50.00;;;;;;5113444;28;20750;-60
2023/01/20 08:04:16;;;;;;;4.68;4.10;;;17.40;50.00;;;;;;5114493;28;20205;-60
2023/01/20 08:06:42;;;;;;;4.65;4.10;;;17.40;50.00;;;;;;5114188;28;20597;-60
2023/01/20 08:09:11;;;;;;;4.60;4.10;;;17.30;50.10;;;;;;5113771;28;20173;-66
2023/01/20 08:11:36;;;;;;;4.85;4.40;;;17.30;50.20;;;;;;5114181;28;20538;-64
2023/01/20 08:14:02;;;;;;;5.22;4.25;;;17.20;50.30;;;;;;5114417;28;20176;-65
2023/01/20 08:16:28;;;;;;;4.95;4.45;;;17.20;50.60;;;;;;5113292;28;20228;-66
2023/01/20 08:18:53;;;;;;;6.45;4.65;;;17.10;50.60;;;;;;5114177;28;20177;-66
2023/01/20 08:21:25;;;;;;;4.70;4.30;;;17.00;50.70;;;;;;5114126;28;20621;-67
2023/01/20 08:23:51;;;;;;;5.30;4.80;;;16.90;50.80;;;;;;5113148;28;20514;-67
2023/01/20 08:26:18;;;;;;;5.55;5.05;;;16.90;51.20;;;;;;5114352;28;20687;-65
2023/01/20 08:28:43;;;;;;;5.50;4.97;;;16.80;51.00;;;;;;5114092;28;20176;-66
2023/01/20 08:31:10;;;;;;;7.50;5.20;;;16.80;51.30;;;;;;5113458;28;20538;-64
2023/01/20 08:33:36;;;;;;;5.60;5.10;;;16.80;51.40;;;;;;5113690;28;20184;-63
2023/01/20 08:36:06;;;;;;;7.05;4.97;;;16.90;51.70;;;;;;5114200;28;20169;-64
2023/01/20 08:38:32;;;;;;;7.28;5.57;;;16.80;51.70;;;;;;5113036;28;20226;-73
2023/01/20 08:40:57;;;;;;;7.63;5.50;;;17.00;51.70;;;;;;5114077;28;20197;-78
2023/01/20 08:43:23;;;;;;;6.68;5.60;;;17.20;51.70;;;;;;5114031;28;20264;-75
2023/01/20 08:45:58;;;;;;;8.40;5.82;;;17.00;51.10;;;;;;5113120;28;20265;-77
2023/01/20 08:48:23;;;;;;;8.30;5.65;;;17.00;51.30;;;;;;5113929;28;20176;-79
2023/01/20 08:50:49;;;;;;;6.18;5.35;;;16.90;51.40;;;;;;5113429;28;20184;-75
2023/01/20 08:53:14;;;;;;;9.38;5.53;;;16.80;51.60;;;;;;5112596;28;20180;-75
2023/01/20 08:55:40;;;;;;;6.60;5.78;;;16.80;51.70;;;;;;5113568;28;20165;-76
2023/01/20 08:58:05;;;;;;;7.28;5.80;;;16.70;51.90;;;;;;5112978;28;20172;-73
2023/01/20 09:00:30;;;;;;;7.85;5.88;;;16.70;52.40;;;;;;5113647;28;20257;-78
2023/01/20 09:02:56;;;;;;;9.30;6.25;;;16.70;51.90;;;;;;5113578;28;20272;-75
2023/01/20 09:05:22;;;;;;;7.00;5.78;;;16.70;51.90;;;;;;5113177;28;20972;-78
2023/01/20 09:07:47;;;;;;;8.55;6.13;;;16.70;51.90;;;;;;5113821;28;20692;-79
2023/01/20 09:10:13;;;;;;;8.48;6.07;;;16.70;51.90;;;;;;5113695;28;20218;-74
2023/01/20 09:12:38;;;;;;;7.60;6.57;;;16.70;51.90;;;;;;5112643;28;20242;-75
2023/01/20 09:15:06;;;;;;;9.07;7.03;;;16.70;52.00;;;;;;5113202;28;20547;-74
2023/01/20 09:17:33;;;;;;;7.95;7.07;;;16.70;52.10;;;;;;5112533;28;20228;-74
2023/01/20 09:19:58;;;;;;;7.97;6.63;;;16.70;52.00;;;;;;5112235;28;20173;-68
2023/01/20 09:22:24;;;;;;;6.80;5.75;;;16.60;51.90;;;;;;5112669;28;20614;-79
2023/01/20 09:24:49;;;;;;;7.65;6.60;;;16.60;51.90;;;;;;5112784;28;20702;-79
2023/01/20 09:27:15;;;;;;;7.00;6.30;;;16.60;51.90;;;;;;5112852;28;20173;-76
2023/01/20 09:29:41;;;;;;;9.38;6.40;;;16.60;51.90;;;;;;5113132;28;20173;-78
2023/01/20 09:32:06;;;;;;;8.82;7.13;;;16.60;51.90;;;;;;5112977;28;20181;-75
2023/01/20 09:34:33;;;;;;;7.00;6.28;;;16.70;52.00;;;;;;5111984;28;20165;-71
2023/01/20 09:45:37;;;;;;;8.57;6.32;;;16.80;51.70;;;;;;5082529;28;20164;-75
2023/01/20 09:53:45;;;;;;;7.72;6.68;;;16.80;51.50;;;;;;5081338;28;20164;-73
2023/01/20 09:56:13;;;;;;;6.80;6.07;;;16.80;52.20;;;;;;5111903;28;20553;-73
2023/01/20 09:59:05;;;;;;;7.47;6.45;;;16.80;51.60;;;;;;5091427;28;20699;-71
2023/01/20 10:01:39;;;;;;;7.45;6.75;;;16.80;51.90;;;;;;5076046;28;20204;-73
2023/01/20 10:04:17;;;;;;;9.23;6.55;;;16.70;51.70;;;;;;5093520;28;20260;-77
2023/01/20 10:06:44;;;;;;;9.20;6.88;;;16.80;51.80;;;;;;5113094;28;20165;-73
2023/01/20 10:09:16;;;;;;;7.05;5.82;;;16.90;51.70;;;;;;5080765;28;20606;-69
2023/01/20 10:11:42;;;;;;;8.90;5.90;;;17.00;51.40;;;;;;5093698;28;20174;-69
2023/01/20 10:14:11;;;;;;;8.30;5.80;;;17.30;51.20;;;;;;5097829;28;20180;-66
2023/01/20 10:16:44;;;;;;;6.63;5.53;;;17.50;50.70;;;;;;5114968;28;20220;-67
2023/01/20 10:19:26;;;;;;;7.32;5.63;;;17.80;50.30;;;;;;5098089;28;20165;-67
2023/01/20 10:22:16;;;;;;;6.15;4.85;;;17.90;50.00;;;;;;5098894;28;20201;-66
2023/01/20 10:25:06;;;;;;;6.85;5.07;;;18.00;50.50;;;;;;5086342;28;20193;-68
2023/01/20 10:27:31;;;;;;;6.57;5.22;;;18.10;49.70;;;;;;5115299;28;20195;-69
2023/01/20 10:30:17;;;;;;;7.43;5.00;;;18.20;49.70;;;;;;5080063;28;20680;-68
2023/01/20 10:33:07;;;;;;;5.47;4.15;;;18.30;49.50;;;;;;5092278;28;20173;-68
2023/01/20 10:35:35;;;;;;;5.65;4.50;;;18.40;49.50;;;;;;5096752;28;20246;-66
2023/01/20 10:38:01;;;;;;;4.45;4.05;;;18.40;49.30;;;;;;5097577;28;20176;-66
2023/01/20 10:40:45;;;;;;;5.45;4.35;;;18.50;49.40;;;;;;5097943;28;20528;-66
2023/01/20 10:43:15;;;;;;;5.88;4.95;;;18.60;49.10;;;;;;5116173;28;20189;-66
2023/01/20 10:45:55;;;;;;;4.75;4.30;;;18.60;49.20;;;;;;5076673;28;20538;-66
2023/01/20 10:48:42;;;;;;;5.90;4.40;;;18.70;49.20;;;;;;5078575;28;20162;-67
2023/01/20 10:51:17;;;;;;;4.95;3.88;;;18.80;49.00;;;;;;5095063;28;20212;-67
2023/01/20 10:53:57;;;;;;;4.70;4.30;;;18.70;49.00;;;;;;5095414;28;20180;-67
2023/01/20 10:56:44;;;;;;;5.10;4.15;;;18.80;48.90;;;;;;5095654;28;20177;-66
2023/01/20 10:59:15;;;;;;;4.43;3.72;;;18.90;48.80;;;;;;5076968;28;20182;-67
2023/01/20 11:01:42;;;;;;;4.03;3.63;;;18.90;48.90;;;;;;5077133;28;20227;-66
2023/01/20 11:04:17;;;;;;;4.10;3.75;;;18.90;48.90;;;;;;5077375;28;20257;-67
2023/01/20 11:06:42;;;;;;;4.55;3.90;;;18.90;48.90;;;;;;5077085;28;20188;-70
2023/01/20 11:09:27;;;;;;;4.35;3.97;;;18.90;48.80;;;;;;5095480;28;20166;-68
2023/01/20 11:11:53;;;;;;;3.90;3.45;;;19.00;48.70;;;;;;5076402;28;20184;-69
2023/01/20 11:14:19;;;;;;;4.18;3.67;;;19.00;48.80;;;;;;5095150;28;20556;-68
2023/01/20 11:16:46;;;;;;;3.45;3.15;;;19.00;48.80;;;;;;5094156;28;20679;-68
2023/01/20 11:19:12;;;;;;;4.30;3.90;;;19.00;48.90;;;;;;5098240;28;20172;-69
2023/01/20 11:21:39;;;;;;;4.47;3.90;;;19.00;48.80;;;;;;5096882;28;20217;-68
2023/01/20 11:24:30;;;;;;;3.65;3.35;;;19.10;48.80;;;;;;5097449;28;20560;-68
2023/01/20 11:27:05;;;;;;;3.95;3.65;;;19.10;48.70;;;;;;5080505;28;20222;-70
2023/01/20 11:29:40;;;;;;;4.25;3.85;;;19.10;48.80;;;;;;5080430;28;20177;-71
2023/01/20 11:32:23;;;;;;;3.90;3.45;;;19.20;48.60;;;;;;5080676;28;20259;-68
2023/01/20 11:34:49;;;;;;;3.58;3.28;;;19.20;48.60;;;;;;5081460;28;20200;-71
2023/01/20 11:37:19;;;;;;;3.90;3.53;;;19.20;48.80;;;;;;5115349;28;20192;-69
2023/01/20 11:40:00;;;;;;;4.07;3.78;;;19.20;48.80;;;;;;5114651;28;20256;-70
2023/01/20 11:42:40;;;;;;;4.65;3.60;;;19.20;48.70;;;;;;5114750;28;20295;-69
2023/01/20 11:45:28;;;;;;;4.38;3.42;;;19.30;48.60;;;;;;5094598;28;20182;-69
2023/01/20 11:48:03;;;;;;;5.28;3.80;;;19.30;48.80;;;;;;5078604;28;20182;-68
2023/01/20 11:50:46;;;;;;;5.65;3.50;;;19.30;48.80;;;;;;5094759;28;20188;-70
2023/01/20 11:53:16;;;;;;;5.85;3.70;;;19.30;48.80;;;;;;5078095;28;20169;-68
2023/01/20 11:56:04;;;;;;;4.68;3.92;;;19.40;48.80;;;;;;5093165;28;20210;-67
2023/01/20 11:58:31;;;;;;;3.08;2.85;;;19.40;48.80;;;;;;5062224;28;20178;-69
2023/01/20 12:01:02;;;;;;;3.67;3.20;;;19.40;49.40;;;;;;5075385;28;20213;-72
2023/01/20 12:03:35;;;;;;;3.75;3.40;;;19.30;48.80;;;;;;5094471;28;20177;-69
2023/01/20 12:06:14;;;;;;;4.25;3.30;;;19.40;49.00;;;;;;5094443;28;20177;-66
2023/01/20 12:08:48;;;;;;;3.85;3.22;;;19.40;48.90;;;;;;5076727;28;20164;-67
2023/01/20 12:11:37;;;;;;;3.47;3.17;;;19.40;48.80;;;;;;5094384;28;20299;-67
2023/01/20 12:14:19;;;;;;;4.72;3.45;;;19.40;48.50;;;;;;5062066;28;20200;-66
2023/01/20 12:17:09;;;;;;;4.63;3.30;;;19.40;48.50;;;;;;5075434;28;20256;-66
2023/01/20 12:19:35;;;;;;;4.95;3.63;;;19.40;48.50;;;;;;5082528;28;20623;-70
2023/01/20 12:22:05;;;;;;;5.63;4.00;;;19.50;48.40;;;;;;5113379;28;20295;-66
2023/01/20 12:25:07;;;;;;;4.47;3.00;;;19.50;48.40;;;;;;5096215;28;20192;-71
2023/01/20 12:27:47;;;;;;;3.58;3.13;;;19.60;48.40;;;;;;5113389;28;20655;-68
2023/01/20 12:30:44;;;;;;;4.97;3.13;;;19.60;48.40;;;;;;5096493;28;20169;-67
2023/01/20 12:33:30;;;;;;;6.32;4.13;;;19.60;48.50;;;;;;5114282;28;20257;-66
2023/01/20 12:36:20;;;;;;;5.13;3.55;;;19.60;48.50;;;;;;5098008;28;20181;-65
2023/01/20 12:39:08;;;;;;;3.40;3.10;;;19.70;48.80;;;;;;5113967;28;20256;-65
2023/01/20 12:41:44;;;;;;;3.03;2.78;;;19.70;48.60;;;;;;5113655;28;20213;-65
2023/01/20 12:44:22;;;;;;;4.40;3.42;;;19.70;48.40;;;;;;5094952;28;20238;-66
2023/01/20 12:46:55;;;;;;;3.53;2.70;;;19.70;48.50;;;;;;5079166;28;20245;-66
2023/01/20 12:49:27;;;;;;;4.60;2.90;;;19.70;48.50;;;;;;5079307;28;20180;-65
2023/01/20 12:52:09;;;;;;;3.95;2.80;;;19.70;48.50;;;;;;5112602;28;20657;-68
2023/01/20 12:54:34;;;;;;;3.15;2.85;;;19.80;48.40;;;;;;5078703;28;20253;-67
2023/01/20 12:57:42;;;;;;;6.30;2.58;;;19.80;48.50;;;;;;5113895;28;20169;-67
2023/01/20 13:00:38;;;;;;;3.13;2.92;;;19.80;48.50;;;;;;5113842;28;20173;-67
2023/01/20 13:03:30;;;;;;;4.00;3.15;;;19.80;48.50;;;;;;5095467;28;20553;-70
2023/01/20 13:06:16;;;;;;;2.88;2.60;;;19.90;48.50;;;;;;5094569;28;20227;-78
2023/01/20 13:09:32;;;;;;;3.15;2.85;;;19.80;48.50;;;;;;5112641;28;20185;-69
2023/01/20 13:12:27;;;;;;;3.55;3.25;;;19.80;48.10;;;;;;5069047;28;20180;-67
2023/01/20 13:14:57;;;;;;;4.00;2.65;;;19.90;48.20;;;;;;5095112;28;20173;-68
2023/01/20 13:18:14;;;;;;;3.45;2.95;;;19.80;47.80;;;;;;5095111;28;20699;-69
2023/01/20 13:20:40;;;;;;;3.30;3.00;;;19.80;47.90;;;;;;5010315;28;20187;-65